Time,TemperatureF,DewpointF,PressureIn,WindDirection,WindDirectionDegrees,WindSpeedMPH,WindSpeedGustMPH,Humidity,HourlyPrecipIn,Conditions,Clouds,dailyrainin,SoftwareType,DateUTC
2013-09-15 00:43:00,53.0,-99.9,30.13,WNW,296,-999.0,-999.0,-999,0.00,,,-99.99,,2013-09-15 04:43:00,
2013-09-15 01:42:00,51.0,-99.9,30.13,WNW,296,-999.0,-999.0,-999,0.00,,,-99.99,,2013-09-15 05:42:00,
2013-09-15 01:52:00,51.0,-99.9,30.13,WNW,296,-999.0,-999.0,-999,0.00,,,-99.99,,2013-09-15 05:52:00,
2013-09-15 02:42:00,49.0,-99.9,30.13,WNW,296,-999.0,-999.0,-999,0.00,,,-99.99,,2013-09-15 06:42:00,
2013-09-15 02:52:00,49.0,-99.9,30.13,WNW,296,-999.0,-999.0,-999,0.00,,,-99.99,,2013-09-15 06:52:00,
2013-09-15 02:53:00,48.0,-99.9,30.14,WNW,296,-999.0,-999.0,-999,0.00,,,-99.99,,2013-09-15 06:53:00,
2013-09-15 03:42:00,48.0,-99.9,30.14,WNW,296,-999.0,-999.0,-999,0.00,,,-99.99,,2013-09-15 07:42:00,
2013-09-15 04:43:00,48.0,-99.9,30.14,WNW,296,-999.0,-999.0,-999,0.00,,,-99.99,,2013-09-15 08:43:00,
2013-09-15 04:52:00,48.0,-99.9,30.14,WNW,296,-999.0,-999.0,-999,0.00,,,-99.99,,2013-09-15 08:52:00,
2013-09-15 04:53:00,47.0,-99.9,30.15,NE,47,-999.0,-999.0,-999,0.00,,,-99.99,,2013-09-15 08:53:00,
2013-09-15 05:44:00,47.0,-99.9,30.15,NE,47,-999.0,-999.0,-999,0.00,,,-99.99,,2013-09-15 09:44:00,
2013-09-15 05:53:00,46.0,-99.9,30.17,NE,47,-999.0,-999.0,-999,0.00,,,-99.99,,2013-09-15 09:53:00,
2013-09-15 06:43:00,46.0,-99.9,30.17,NE,47,-999.0,-999.0,-999,0.00,,,-99.99,,2013-09-15 10:43:00,
2013-09-15 07:42:00,46.0,-99.9,30.19,NE,47,-999.0,-999.0,-999,0.00,,,-99.99,,2013-09-15 11:42:00,
2013-09-15 07:52:00,46.0,-99.9,30.19,NE,47,-999.0,-999.0,-999,0.00,,,-99.99,,2013-09-15 11:52:00,
2013-09-15 08:42:00,47.0,-99.9,30.19,NE,47,-999.0,-999.0,-999,0.00,,,-99.99,,2013-09-15 12:42:00,
2013-09-15 08:52:00,47.0,-99.9,30.19,NE,47,-999.0,-999.0,-999,0.00,,,-99.99,,2013-09-15 12:52:00,
2013-09-15 08:53:00,51.0,-99.9,30.21,SSW,209,-999.0,8.0,-999,0.00,,,-99.99,,2013-09-15 12:53:00,
2013-09-15 09:42:00,51.0,-99.9,30.21,SSW,209,-999.0,8.0,-999,0.00,,,-99.99,,2013-09-15 13:42:00,
2013-09-15 15:42:00,71.0,-99.9,30.14,SSW,208,-999.0,3.0,-999,0.00,,,-99.99,,2013-09-15 19:42:00,
2013-09-15 15:52:00,71.0,-99.9,30.14,SSW,208,-999.0,3.0,-999,0.00,,,-99.99,,2013-09-15 19:52:00,
2013-09-15 15:53:00,73.0,-99.9,30.11,SSW,213,-999.0,6.0,-999,0.00,,,-99.99,,2013-09-15 19:53:00,
2013-09-15 16:42:00,73.0,-99.9,30.11,SSW,213,-999.0,6.0,-999,0.00,,,-99.99,,2013-09-15 20:42:00,
2013-09-15 16:53:00,72.0,-99.9,30.10,WSW,245,-999.0,8.0,-999,0.00,,,-99.99,,2013-09-15 20:53:00,
2013-09-15 17:44:00,72.0,-99.9,30.10,WSW,245,-999.0,8.0,-999,0.00,,,-99.99,,2013-09-15 21:44:00,
2013-09-15 17:53:00,69.0,-99.9,30.09,South,186,-999.0,6.0,-999,0.00,,,-99.99,,2013-09-15 21:53:00,
2013-09-15 18:44:00,69.0,-99.9,30.09,South,186,-999.0,6.0,-999,0.00,,,-99.99,,2013-09-15 22:44:00,
2013-09-15 18:53:00,66.0,-99.9,30.09,SSW,206,-999.0,-999.0,-999,0.00,,,-99.99,,2013-09-15 22:53:00,
2013-09-15 19:42:00,66.0,-99.9,30.09,SSW,206,-999.0,-999.0,-999,0.00,,,-99.99,,2013-09-15 23:42:00,
2013-09-15 20:42:00,62.0,-99.9,30.09,SSW,206,-999.0,-999.0,-999,0.00,,,-99.99,,2013-09-16 00:42:00,
2013-09-15 20:52:00,62.0,-99.9,30.09,SSW,206,-999.0,-999.0,-999,0.00,,,-99.99,,2013-09-16 00:52:00,
2013-09-15 21:42:00,58.0,-99.9,30.09,SSW,206,-999.0,-999.0,-999,0.00,,,-99.99,,2013-09-16 01:42:00,
2013-09-15 21:52:00,58.0,-99.9,30.09,SSW,206,-999.0,-999.0,-999,0.00,,,-99.99,,2013-09-16 01:52:00,
2013-09-15 22:42:00,57.0,-99.9,30.09,SSW,206,-999.0,-999.0,-999,0.00,,,-99.99,,2013-09-16 02:42:00,
2013-09-15 22:52:00,57.0,-99.9,30.09,SSW,206,-999.0,-999.0,-999,0.00,,,-99.99,,2013-09-16 02:52:00,
2013-09-15 22:53:00,55.0,-99.9,30.09,SSW,206,-999.0,-999.0,-999,0.00,,,-99.99,,2013-09-16 02:53:00,
2013-09-15 23:45:00,55.0,-99.9,30.09,SSW,206,-999.0,-999.0,-999,0.00,,,-99.99,,2013-09-16 03:45:00,
2013-09-15 23:53:00,56.0,-99.9,30.09,SSW,206,-999.0,-999.0,-999,0.00,,,-99.99,,2013-09-16 03:53:00,